Airfield :
LOGIN :

Register | Disclaimer

   EN    FR    IT 

 










Legend :    VFR   Marginal VFR   IFR   Intensive IFR   Very Intensive IFR
Visi :
Ceiling :
>= 8 km
>= 3000ft
5 to 8 km
1000 to 3000 ft
1500m to 5 km
500 to 1000 ft
800 to 1500m
200 to 500 ft
< 800m
< 200 ft
Symbols :   Thunderstorms  Fog  Heavy snow  Heavy precipitations  Wind > 20 kt
SIGMETs :     Misc.  Thunderstorms  Icing  Turbulence  Mountain Waves  Volcanic Ashes






- Airport Elevation : 13 ft
- IATA code : GOA


LIMJ - Genoa Cristoforo Colombo

CURRENT METAR :
  • 110250Z 03014KT 7000 RA BKN035 09/07 Q1015

EXPIRED METARs :
  • 110220Z 03016KT 6000 RA BKN035 09/07 Q1015
  • 110150Z 04017KT 7000 RA BKN030 09/07 Q1015
  • 110120Z 04016KT 7000 RA BKN025 09/07 Q1016
  • 110050Z 04016KT 6000 RA BKN020 09/07 Q1016

TAF TAF LIMJ
Valid from the 11 at 00:00 until the 12 at 00:00 UTC


102300Z 1100/1124 12013KT 7000 RA BKN020 BKN060
TEMPO 1102/1106 4000 SHRA
TEMPO 1106/1110 4000 TSRA 1116/1124 4000 TSRA



MET'MAP, your aeronautical weather chart ! - Copyright ORBIFLY December 2007 - Disclaimer

ORBIFLY MET'MAP TEAM :

Programming & Development : Alexandra Zaïnal
Concept & original design : Baudouin d'Aumeries
Assistance for programming : Marc-Olivier Méhu
Technical & hardware support : Manuel Goepfert

Contact : metmap@orbifly.com




SOURCES & CREDITS :

   NOAA